Terminal Aerodrome Forecast
Issued by NWS Charleston, WV

Current Version | Previous Version | Text Only | Print | Product List | Glossary Off
Versions: 1 2 3 4 5 6 7 8 9 10 11 12 13 14 15 16 17 18 19 20 21 22 23 24 25 26 27 28

000
FTUS41 KRLX 291100
TAFHTS
TAF
KHTS 291122Z 2912/3012 17008KT P6SM BKN200
     FM291500 18009G18KT P6SM -RA OVC050
     FM291700 20009KT P6SM OVC050
     FM292100 27009G18KT P6SM OVC025
     FM300000 28009G18KT P6SM -RA OVC018
     FM300500 28011G20KT 5SM -SN OVC014=

USA.gov is the U.S. government's official web portal to all federal, state and local government web resources and services.